Lakeland, Texas
Current Conditions -  °F | °C
As of 7:53 AM on Monday 24 Nov 2014 (Local Time) from KCXO Reporting Station
Clear Clear  
Wind Chill: 45°   Ceiling: Unl
Heat Index: 49°   Visibility: 10mi
Dew Point: 39°   Wind: 9mph
Humidity: 69%   Direction: 330°NNW
Pressure: 30"   Gusts: NA
Location:  30.3059°N, 95.4359°W
Report Text: KCXO 241353Z 33008KT 10SM CLR 09/04 A3000 RMK AO2 SLP157 T00940039
Loading
Personal Weather Stations






























Interactive Weather Map New forecast layout! Learn more

10-Day Weather Forecast

Advertisements
Track Severe Weather on mobile